createdAt,value
2018-09-15T00:02:21.707Z,98.00
2018-09-15T00:05:03.362Z,97.80
2018-09-15T00:07:44.021Z,97.80
2018-09-15T00:10:24.745Z,97.70
2018-09-15T00:13:05.416Z,97.70
2018-09-15T00:15:46.125Z,97.70
2018-09-15T00:18:26.802Z,97.80
2018-09-15T00:21:07.382Z,97.80
2018-09-15T00:23:48.166Z,97.80
2018-09-15T00:26:29.611Z,97.80
2018-09-15T00:29:10.162Z,97.70
2018-09-15T00:31:50.948Z,97.70
2018-09-15T00:34:31.520Z,97.70
2018-09-15T00:37:12.318Z,97.60
2018-09-15T00:39:52.825Z,97.50
2018-09-15T00:42:33.550Z,97.50
2018-09-15T00:45:14.253Z,97.80
2018-09-15T00:47:54.901Z,97.90
2018-09-15T00:50:35.468Z,97.90
2018-09-15T00:53:16.147Z,97.80
2018-09-15T00:55:56.748Z,97.80
2018-09-15T00:58:37.571Z,97.70
2018-09-15T01:01:18.366Z,97.50
2018-09-15T01:03:59.007Z,97.40
2018-09-15T01:06:39.666Z,97.30
2018-09-15T01:09:20.392Z,97.20
2018-09-15T01:12:01.530Z,97.10
2018-09-15T01:14:43.044Z,97.00
2018-09-15T01:17:24.244Z,97.10
2018-09-15T01:20:05.158Z,96.80
2018-09-15T01:22:45.810Z,96.40
2018-09-15T01:25:26.474Z,96.60
2018-09-15T01:28:07.021Z,96.90
2018-09-15T01:30:47.642Z,97.60
2018-09-15T01:33:28.286Z,98.40
2018-09-15T01:36:08.880Z,98.90
2018-09-15T01:38:49.750Z,99.70
2018-09-15T01:41:31.156Z,99.90
2018-09-15T01:44:11.935Z,99.90
2018-09-15T01:46:52.509Z,99.90
2018-09-15T01:49:33.289Z,99.90
2018-09-15T01:52:14.024Z,99.90
2018-09-15T01:54:55.406Z,99.90
2018-09-15T01:57:36.197Z,99.90
2018-09-15T02:00:16.824Z,99.90
2018-09-15T02:02:57.428Z,99.90
2018-09-15T02:05:38.014Z,99.90
2018-09-15T02:08:19.438Z,99.90
2018-09-15T02:11:00.193Z,99.90
2018-09-15T02:13:40.960Z,99.90
2018-09-15T02:16:22.437Z,99.90
2018-09-15T02:19:03.135Z,99.90
2018-09-15T02:21:44.023Z,99.90
2018-09-15T02:24:24.830Z,99.90
2018-09-15T02:27:05.487Z,99.90
2018-09-15T02:29:46.202Z,99.90
2018-09-15T02:32:26.774Z,99.90
2018-09-15T02:35:07.362Z,99.90
2018-09-15T02:37:48.242Z,99.90
2018-09-15T02:40:29.106Z,99.90
2018-09-15T02:43:10.454Z,99.90
2018-09-15T02:45:51.302Z,99.90
2018-09-15T02:48:32.567Z,99.90
2018-09-15T02:51:13.857Z,99.90
2018-09-15T02:53:54.387Z,99.90
2018-09-15T02:56:35.253Z,99.90
2018-09-15T02:59:16.002Z,99.90
2018-09-15T03:01:56.793Z,99.90
2018-09-15T03:04:37.327Z,99.90
2018-09-15T03:07:18.176Z,99.90
2018-09-15T03:09:58.985Z,99.90
2018-09-15T03:12:40.542Z,99.90
2018-09-15T03:15:21.409Z,99.90
2018-09-15T03:18:03.643Z,99.90
2018-09-15T03:20:44.427Z,99.90
2018-09-15T03:23:24.996Z,99.90
2018-09-15T03:26:05.969Z,99.90
2018-09-15T03:28:46.790Z,99.90
2018-09-15T03:31:27.968Z,99.90
2018-09-15T03:34:08.842Z,99.90
2018-09-15T03:36:50.064Z,99.90
2018-09-15T03:39:31.186Z,99.90
2018-09-15T03:42:11.817Z,99.90
2018-09-15T03:44:52.404Z,99.90
2018-09-15T03:47:32.990Z,99.90
2018-09-15T03:50:13.602Z,99.90
2018-09-15T03:52:54.354Z,99.90
2018-09-15T03:55:34.939Z,99.90
2018-09-15T03:58:15.749Z,99.90
2018-09-15T04:00:56.488Z,99.90
2018-09-15T04:03:37.343Z,99.90
2018-09-15T04:06:17.997Z,99.90
2018-09-15T04:08:58.769Z,99.90
2018-09-15T04:11:39.634Z,99.90
2018-09-15T04:14:20.243Z,99.90
2018-09-15T04:17:00.735Z,99.90
2018-09-15T04:19:41.409Z,99.90
2018-09-15T04:22:22.162Z,99.90
2018-09-15T04:25:02.756Z,99.90
2018-09-15T04:27:43.509Z,99.90
2018-09-15T04:30:24.180Z,99.90
2018-09-15T04:33:04.912Z,99.90
2018-09-15T04:35:45.563Z,99.90
2018-09-15T04:38:26.666Z,99.90
2018-09-15T04:41:07.546Z,99.90
2018-09-15T04:43:48.836Z,99.90
2018-09-15T04:46:29.620Z,99.90
2018-09-15T04:49:10.584Z,99.90
2018-09-15T04:51:51.617Z,99.90
2018-09-15T04:54:32.954Z,99.90
2018-09-15T04:57:13.783Z,99.90
2018-09-15T04:59:54.566Z,99.90
2018-09-15T05:02:35.270Z,99.90
2018-09-15T05:05:16.032Z,99.90
2018-09-15T05:07:56.607Z,99.90
2018-09-15T05:10:37.477Z,99.90
2018-09-15T05:13:18.909Z,99.70
2018-09-15T05:15:59.994Z,99.30
2018-09-15T05:18:41.329Z,99.30
2018-09-15T05:21:21.872Z,98.80
2018-09-15T05:24:02.401Z,98.70
2018-09-15T05:26:43.140Z,98.70
2018-09-15T05:29:23.805Z,98.70
2018-09-15T05:32:04.473Z,98.40
2018-09-15T05:34:45.270Z,98.40
2018-09-15T05:37:26.003Z,98.50
2018-09-15T05:40:06.485Z,98.40
2018-09-15T05:42:47.419Z,98.30
2018-09-15T05:45:27.895Z,98.10
2018-09-15T05:48:08.652Z,98.10
2018-09-15T05:50:49.248Z,97.70
2018-09-15T05:53:29.997Z,97.50
2018-09-15T05:56:10.987Z,97.60
2018-09-15T05:58:51.580Z,96.90
2018-09-15T06:01:32.273Z,97.00
2018-09-15T06:04:12.826Z,96.20
2018-09-15T06:06:53.629Z,96.30
2018-09-15T06:09:34.213Z,96.20
2018-09-15T06:12:15.057Z,95.80
2018-09-15T06:14:56.353Z,95.30
2018-09-15T06:17:37.200Z,95.50
2018-09-15T06:20:17.920Z,95.50
2018-09-15T06:22:58.533Z,95.10
2018-09-15T06:25:39.306Z,95.00
2018-09-15T06:28:20.088Z,94.70
2018-09-15T06:31:00.700Z,94.70
2018-09-15T06:33:41.442Z,94.50
2018-09-15T06:36:22.063Z,94.90
2018-09-15T06:39:02.985Z,94.80
2018-09-15T06:41:44.410Z,94.80
2018-09-15T06:44:24.980Z,95.00
2018-09-15T06:47:05.786Z,94.90
2018-09-15T06:49:46.238Z,94.70
2018-09-15T06:52:26.906Z,94.70
2018-09-15T06:55:07.940Z,94.70
2018-09-15T06:57:49.095Z,94.40
2018-09-15T07:00:29.855Z,94.40
2018-09-15T07:03:10.748Z,94.60
2018-09-15T07:05:52.342Z,94.50
2018-09-15T07:08:32.838Z,94.60
2018-09-15T07:11:13.518Z,94.30
2018-09-15T07:13:54.065Z,94.50
2018-09-15T07:16:35.163Z,94.50
2018-09-15T07:19:16.354Z,94.80
2018-09-15T07:21:56.938Z,94.80
2018-09-15T07:24:38.193Z,94.70
2018-09-15T07:27:19.865Z,94.50
2018-09-15T07:30:00.877Z,94.60
2018-09-15T07:32:41.461Z,94.40
2018-09-15T07:35:22.007Z,94.60
2018-09-15T07:38:02.827Z,94.60
2018-09-15T07:40:43.480Z,94.30
2018-09-15T07:43:24.213Z,94.40
2018-09-15T07:46:04.772Z,94.20
2018-09-15T07:48:45.410Z,94.50
2018-09-15T07:51:25.926Z,94.60
2018-09-15T07:54:06.517Z,94.70
2018-09-15T07:56:47.313Z,94.50
2018-09-15T07:59:28.232Z,94.20
2018-09-15T08:02:14.834Z,93.80
2018-09-15T08:04:56.398Z,93.50
2018-09-15T08:07:37.769Z,93.80
2018-09-15T08:10:18.430Z,93.90
2018-09-15T08:12:58.976Z,93.70
2018-09-15T08:15:39.573Z,93.60
2018-09-15T08:18:20.455Z,93.90
2018-09-15T08:21:01.950Z,93.80
2018-09-15T08:23:42.628Z,93.80
2018-09-15T08:26:23.143Z,94.10
2018-09-15T08:29:03.751Z,94.10
2018-09-15T08:31:44.342Z,94.30
2018-09-15T08:34:24.889Z,94.30
2018-09-15T08:37:05.636Z,94.70
2018-09-15T08:39:46.376Z,94.50
2018-09-15T08:42:26.880Z,94.60
2018-09-15T08:45:07.580Z,95.00
2018-09-15T08:47:48.287Z,94.40
2018-09-15T08:50:28.969Z,94.30
2018-09-15T08:53:09.593Z,94.30
2018-09-15T08:55:50.420Z,93.80
2018-09-15T08:58:30.858Z,94.00
2018-09-15T09:01:11.604Z,93.60
2018-09-15T09:03:52.254Z,93.70
2018-09-15T09:06:32.921Z,92.90
2018-09-15T09:09:13.892Z,93.10
2018-09-15T09:11:55.245Z,93.20
2018-09-15T09:14:35.836Z,92.80
2018-09-15T09:17:16.578Z,92.40
2018-09-15T09:19:57.172Z,92.30
2018-09-15T09:22:37.893Z,92.90
2018-09-15T09:25:19.034Z,92.80
2018-09-15T09:28:00.169Z,92.20
2018-09-15T09:30:40.890Z,92.00
2018-09-15T09:33:22.129Z,92.20
2018-09-15T09:36:03.215Z,91.90
2018-09-15T09:38:43.803Z,92.40
2018-09-15T09:41:24.576Z,94.50
2018-09-15T09:44:05.077Z,95.10
2018-09-15T09:46:45.758Z,94.80
2018-09-15T09:49:26.472Z,94.30
2018-09-15T09:52:07.878Z,93.80
2018-09-15T09:54:48.617Z,93.70
2018-09-15T09:57:29.053Z,94.20
2018-09-15T10:00:12.461Z,92.60
2018-09-15T10:02:53.344Z,90.50
2018-09-15T10:05:33.803Z,90.20
2018-09-15T10:08:14.762Z,90.00
2018-09-15T10:10:55.384Z,89.30
2018-09-15T10:13:36.225Z,89.50
2018-09-15T10:16:16.975Z,89.40
2018-09-15T10:18:57.509Z,88.50
2018-09-15T10:21:38.193Z,88.90
2018-09-15T10:24:18.853Z,88.40
2018-09-15T10:26:59.439Z,89.10
2018-09-15T10:29:40.163Z,89.20
2018-09-15T10:32:20.722Z,89.50
2018-09-15T10:35:01.449Z,89.50
2018-09-15T10:37:42.141Z,89.70
2018-09-15T10:40:22.708Z,90.10
2018-09-15T10:43:03.127Z,90.20
2018-09-15T10:45:43.706Z,88.80
2018-09-15T10:48:24.454Z,88.00
2018-09-15T10:51:05.870Z,86.50
2018-09-15T10:53:46.470Z,85.30
2018-09-15T10:56:27.119Z,84.60
2018-09-15T10:59:07.680Z,84.80
2018-09-15T11:01:48.301Z,83.20
2018-09-15T11:04:29.092Z,81.50
2018-09-15T11:07:09.661Z,83.00
2018-09-15T11:09:50.390Z,83.00
2018-09-15T11:12:31.109Z,82.80
2018-09-15T11:15:11.709Z,82.10
2018-09-15T11:17:52.352Z,82.60
2018-09-15T11:20:33.821Z,82.20
2018-09-15T11:23:14.370Z,83.40
2018-09-15T11:25:55.077Z,83.00
2018-09-15T11:28:36.619Z,82.50
2018-09-15T11:31:18.686Z,81.80
2018-09-15T11:33:59.814Z,81.40
2018-09-15T11:36:40.328Z,81.10
2018-09-15T11:39:20.890Z,81.60
2018-09-15T11:42:01.848Z,81.60
2018-09-15T11:44:42.778Z,81.80
2018-09-15T11:47:23.842Z,81.90
2018-09-15T11:50:05.180Z,82.30
2018-09-15T11:52:45.955Z,82.40
2018-09-15T11:55:26.725Z,82.30
2018-09-15T11:58:07.438Z,82.20
2018-09-15T12:00:54.027Z,82.50
2018-09-15T12:03:35.030Z,82.90
2018-09-15T12:06:16.242Z,82.60
2018-09-15T12:08:57.275Z,82.70
2018-09-15T12:11:39.100Z,82.40
2018-09-15T12:14:20.561Z,82.50
2018-09-15T12:17:01.093Z,82.40
2018-09-15T12:19:41.753Z,82.50
2018-09-15T12:22:22.518Z,83.60
2018-09-15T12:25:03.173Z,84.00
2018-09-15T12:27:43.822Z,84.30
2018-09-15T12:30:24.407Z,84.80
2018-09-15T12:33:05.010Z,85.00
2018-09-15T12:35:45.694Z,84.80
2018-09-15T12:38:26.391Z,85.20
2018-09-15T12:41:06.903Z,85.80
2018-09-15T12:43:47.589Z,86.40
2018-09-15T12:46:28.286Z,86.80
2018-09-15T12:49:08.923Z,86.60
2018-09-15T12:51:49.858Z,86.80
2018-09-15T12:54:31.242Z,86.60
2018-09-15T12:57:11.874Z,86.10
2018-09-15T12:59:54.068Z,86.60
2018-09-15T13:02:35.214Z,86.80
2018-09-15T13:05:16.660Z,87.10
2018-09-15T13:07:57.269Z,87.50
2018-09-15T13:10:37.840Z,84.90
2018-09-15T13:13:18.422Z,83.70
2018-09-15T13:15:59.073Z,83.50
2018-09-15T13:18:39.882Z,84.70
2018-09-15T13:21:20.675Z,85.30
2018-09-15T13:24:01.311Z,84.40
2018-09-15T13:26:41.790Z,83.60
2018-09-15T13:29:22.592Z,83.90
2018-09-15T13:32:03.507Z,83.50
2018-09-15T13:34:45.033Z,83.50
2018-09-15T13:37:25.707Z,83.30
2018-09-15T13:40:06.383Z,82.90
2018-09-15T13:42:47.110Z,82.50
2018-09-15T13:45:27.725Z,82.70
2018-09-15T13:48:08.541Z,82.10
2018-09-15T13:50:49.073Z,82.20
2018-09-15T13:53:29.769Z,82.50
2018-09-15T13:56:10.247Z,82.50
2018-09-15T13:58:51.421Z,80.90
2018-09-15T14:01:31.942Z,82.10
2018-09-15T14:04:12.705Z,81.10
2018-09-15T14:06:54.366Z,81.00
2018-09-15T14:09:43.290Z,80.70
2018-09-15T14:12:16.608Z,80.90
2018-09-15T14:14:57.426Z,81.50
2018-09-15T14:17:38.854Z,81.00
2018-09-15T14:20:19.439Z,81.00
2018-09-15T14:23:00.540Z,81.80
2018-09-15T14:25:41.644Z,82.30
2018-09-15T14:28:22.439Z,82.30
2018-09-15T14:31:03.025Z,82.50
2018-09-15T14:33:43.599Z,82.50
2018-09-15T14:36:24.062Z,82.80
2018-09-15T14:39:05.530Z,83.00
2018-09-15T14:41:46.737Z,84.30
2018-09-15T14:44:28.140Z,83.60
2018-09-15T14:47:15.345Z,83.90
2018-09-15T14:49:57.209Z,83.60
2018-09-15T14:52:38.547Z,83.70
2018-09-15T14:55:20.218Z,84.10
2018-09-15T14:58:00.611Z,84.50
2018-09-15T15:00:41.373Z,84.40
2018-09-15T15:03:21.902Z,85.30
2018-09-15T15:06:02.490Z,86.30
2018-09-15T15:08:43.053Z,85.80
2018-09-15T15:11:23.838Z,86.00
2018-09-15T15:14:04.546Z,85.60
2018-09-15T15:16:45.157Z,85.60
2018-09-15T15:19:25.848Z,85.00
2018-09-15T15:22:06.774Z,85.40
2018-09-15T15:24:47.589Z,85.40
2018-09-15T15:27:28.127Z,85.60
2018-09-15T15:30:08.978Z,85.80
2018-09-15T15:32:49.489Z,86.30
2018-09-15T15:35:30.347Z,85.00
2018-09-15T15:38:10.960Z,85.00
2018-09-15T15:40:52.525Z,85.20
2018-09-15T15:43:34.154Z,85.40
2018-09-15T15:46:14.675Z,85.70
2018-09-15T15:48:55.248Z,86.10
2018-09-15T15:51:35.794Z,86.40
2018-09-15T15:54:16.457Z,86.40
2018-09-15T15:56:57.040Z,86.50
2018-09-15T15:59:37.948Z,86.70
2018-09-15T16:02:19.318Z,86.50
2018-09-15T16:05:00.271Z,86.20
2018-09-15T16:07:41.172Z,86.30
2018-09-15T16:10:22.681Z,86.10
2018-09-15T16:13:03.392Z,86.10
2018-09-15T16:15:43.884Z,86.30
2018-09-15T16:18:24.550Z,87.00
2018-09-15T16:21:05.454Z,86.30
2018-09-15T16:23:46.497Z,86.30
2018-09-15T16:26:27.170Z,86.50
2018-09-15T16:29:07.729Z,86.40
2018-09-15T16:31:48.615Z,86.80
2018-09-15T16:34:29.382Z,87.00
2018-09-15T16:37:10.077Z,87.40
2018-09-15T16:39:51.534Z,87.00
2018-09-15T16:42:32.182Z,87.00
2018-09-15T16:45:12.990Z,87.10
2018-09-15T16:47:53.551Z,87.40
2018-09-15T16:50:34.226Z,87.30
2018-09-15T16:53:14.870Z,87.90
2018-09-15T16:55:55.385Z,88.50
2018-09-15T16:58:36.127Z,88.40
2018-09-15T17:01:16.745Z,88.70
2018-09-15T17:03:57.488Z,88.60
2018-09-15T17:06:38.188Z,88.60
2018-09-15T17:09:19.649Z,88.50
2018-09-15T17:12:00.479Z,88.80
2018-09-15T17:14:41.211Z,88.80
2018-09-15T17:17:21.825Z,88.90
2018-09-15T17:20:02.518Z,89.00
2018-09-15T17:22:43.200Z,89.20
2018-09-15T17:25:24.637Z,89.10
2018-09-15T17:28:05.408Z,89.00
2018-09-15T17:30:46.161Z,90.00
2018-09-15T17:33:26.704Z,91.20
2018-09-15T17:36:07.537Z,91.70
2018-09-15T17:38:49.141Z,91.80
2018-09-15T17:41:30.706Z,91.90
2018-09-15T17:44:11.293Z,92.00
2018-09-15T17:46:52.069Z,92.10
2018-09-15T17:49:32.688Z,92.60
2018-09-15T17:52:14.050Z,92.70
2018-09-15T17:54:54.816Z,93.10
2018-09-15T17:57:35.286Z,93.00
2018-09-15T18:00:16.697Z,93.00
2018-09-15T18:02:57.529Z,93.40
2018-09-15T18:05:39.274Z,93.50
2018-09-15T18:08:20.531Z,93.90
2018-09-15T18:11:01.223Z,94.00
2018-09-15T18:13:42.322Z,94.30
2018-09-15T18:16:23.584Z,94.50
2018-09-15T18:19:04.164Z,94.40
2018-09-15T18:21:45.222Z,94.40
2018-09-15T18:24:26.675Z,94.50
2018-09-15T18:27:07.365Z,94.60
2018-09-15T18:29:48.073Z,94.60
2018-09-15T18:32:28.778Z,93.80
2018-09-15T18:35:09.393Z,93.40
2018-09-15T18:37:49.971Z,93.20
2018-09-15T18:40:30.805Z,93.50
2018-09-15T18:43:11.520Z,93.90
2018-09-15T18:45:52.175Z,94.10
2018-09-15T18:48:33.546Z,94.20
2018-09-15T18:51:14.182Z,94.20
2018-09-15T18:53:54.808Z,94.30
2018-09-15T18:56:36.247Z,94.50
2018-09-15T18:59:16.951Z,94.60
2018-09-15T19:01:58.073Z,94.70
2018-09-15T19:04:39.061Z,94.80
2018-09-15T19:07:19.709Z,94.80
2018-09-15T19:10:00.807Z,94.70
2018-09-15T19:12:42.219Z,94.70
2018-09-15T19:15:22.998Z,94.80
2018-09-15T19:18:04.460Z,94.80
2018-09-15T19:20:45.062Z,94.80
2018-09-15T19:23:25.609Z,94.80
2018-09-15T19:26:06.745Z,94.80
2018-09-15T19:28:48.034Z,94.90
2018-09-15T19:31:29.427Z,94.90
2018-09-15T19:34:10.142Z,94.90
2018-09-15T19:36:50.984Z,95.00
2018-09-15T19:39:31.840Z,95.10
2018-09-15T19:42:13.205Z,95.20
2018-09-15T19:44:54.050Z,95.10
2018-09-15T19:47:34.593Z,95.20
2018-09-15T19:50:15.428Z,95.30
2018-09-15T19:52:56.063Z,95.40
2018-09-15T19:55:36.987Z,95.30
2018-09-15T19:58:19.477Z,95.30
2018-09-15T20:01:00.145Z,95.30
2018-09-15T20:03:40.933Z,95.40
2018-09-15T20:06:21.669Z,95.30
2018-09-15T20:09:03.010Z,95.30
2018-09-15T20:11:43.899Z,95.50
2018-09-15T20:14:25.323Z,95.50
2018-09-15T20:17:06.081Z,95.50
2018-09-15T20:19:46.871Z,95.50
2018-09-15T20:22:28.338Z,95.40
2018-09-15T20:25:09.484Z,95.60
2018-09-15T20:27:50.154Z,95.70
2018-09-15T20:30:32.190Z,95.70
2018-09-15T20:33:13.312Z,95.70
2018-09-15T20:35:53.928Z,95.70
2018-09-15T20:38:34.698Z,95.80
2018-09-15T20:41:16.126Z,95.90
2018-09-15T20:43:56.865Z,95.90
2018-09-15T20:46:37.565Z,96.00
2018-09-15T20:49:18.374Z,95.90
2018-09-15T20:51:58.971Z,96.00
2018-09-15T20:54:39.835Z,96.00
2018-09-15T20:57:20.787Z,96.00
2018-09-15T21:00:01.482Z,96.10
2018-09-15T21:02:43.090Z,96.20
2018-09-15T21:05:24.542Z,96.30
2018-09-15T21:08:05.461Z,96.30
2018-09-15T21:10:45.890Z,96.40
2018-09-15T21:13:26.726Z,96.50
2018-09-15T21:16:07.757Z,96.50
2018-09-15T21:18:48.274Z,96.50
2018-09-15T21:21:28.946Z,96.40
2018-09-15T21:24:10.421Z,96.40
2018-09-15T21:26:51.072Z,96.40
2018-09-15T21:29:31.708Z,96.30
2018-09-15T21:32:12.396Z,96.60
2018-09-15T21:34:53.223Z,97.10
2018-09-15T21:37:34.564Z,97.90
2018-09-15T21:40:15.415Z,98.20
2018-09-15T21:42:55.999Z,98.30
2018-09-15T21:45:37.510Z,98.40
2018-09-15T21:48:17.987Z,98.40
2018-09-15T21:50:58.679Z,98.60
2018-09-15T21:53:39.306Z,98.90
2018-09-15T21:56:19.873Z,99.10
2018-09-15T21:59:00.425Z,99.40
2018-09-15T22:01:41.265Z,99.90
2018-09-15T22:04:23.127Z,99.90
2018-09-15T22:07:03.636Z,99.90
2018-09-15T22:09:45.049Z,99.90
2018-09-15T22:12:25.823Z,99.90
2018-09-15T22:15:10.521Z,99.90
2018-09-15T22:17:51.358Z,99.90
2018-09-15T22:20:32.250Z,99.90
2018-09-15T22:23:14.043Z,99.90
2018-09-15T22:25:55.182Z,99.90
2018-09-15T22:28:36.650Z,99.90
2018-09-15T22:31:17.278Z,99.90
2018-09-15T22:33:58.539Z,99.90
2018-09-15T22:36:39.830Z,99.90
2018-09-15T22:39:20.695Z,99.90
2018-09-15T22:42:01.531Z,99.90
2018-09-15T22:44:42.593Z,99.90
2018-09-15T22:47:23.600Z,99.90
2018-09-15T22:50:04.745Z,99.90
2018-09-15T22:52:45.749Z,99.90
2018-09-15T22:55:26.590Z,99.90
2018-09-15T22:58:07.129Z,99.90
2018-09-15T23:00:47.735Z,99.90
2018-09-15T23:03:28.862Z,99.90
2018-09-15T23:06:09.363Z,99.90
2018-09-15T23:08:49.965Z,99.90
2018-09-15T23:11:30.642Z,99.90
2018-09-15T23:14:12.318Z,99.90
2018-09-15T23:16:53.074Z,99.90
2018-09-15T23:19:34.129Z,99.90
2018-09-15T23:22:15.111Z,99.90
2018-09-15T23:24:55.620Z,99.90
2018-09-15T23:27:36.859Z,99.90
2018-09-15T23:30:18.046Z,99.90
2018-09-15T23:32:58.486Z,99.90
2018-09-15T23:35:39.326Z,99.90
2018-09-15T23:38:19.836Z,99.90
2018-09-15T23:41:00.667Z,99.90
2018-09-15T23:43:41.989Z,99.90
2018-09-15T23:46:22.583Z,99.90
2018-09-15T23:49:03.552Z,99.90
2018-09-15T23:51:44.823Z,99.90
2018-09-15T23:54:25.385Z,99.90
2018-09-15T23:57:06.164Z,99.90
2018-09-15T23:59:46.856Z,99.90
